Time;durP1;ratioP1;P1;durP2;ratioP2;P2;SDS_P1;SDS_P2;PMS_P1;PMS_P2;Temp;Humidity;BMP_temperature;BMP_pressure;BME280_temperature;BME280_humidity;BME280_pressure;Samples;Min_cycle;Max_cycle;Signal;HPM_P1;HPM_P2
2022/08/11 00:02:32;;;;;;;;;;;;;;;19.75;38.43;99322.22;2621702;54;19946;-66
2022/08/11 00:05:04;;;;;;;;;;;;;;;19.66;38.61;99317.50;2623266;39;20394;-67
2022/08/11 00:07:34;;;;;;;;;;;;;;;19.58;39.25;99315.16;2623068;54;20482;-66
2022/08/11 00:10:06;;;;;;;;;;;;;;;19.47;39.41;99332.91;2622857;54;19938;-67
2022/08/11 00:12:36;;;;;;;;;;;;;;;19.36;39.91;99325.72;2622466;54;19950;-66
2022/08/11 00:15:06;;;;;;;;;;;;;;;19.35;39.71;99326.75;2620622;54;19945;-66
2022/08/11 00:17:37;;;;;;;;;;;;;;;19.44;39.44;99328.03;2618227;54;19939;-66
2022/08/11 00:20:08;;;;;;;;;;;;;;;19.53;39.13;99331.97;2617621;46;19947;-66
2022/08/11 00:22:45;;;;;;;;;;;;;;;19.46;39.67;99328.59;2618217;54;20022;-67
2022/08/11 00:25:18;;;;;;;;;;;;;;;19.38;39.81;99326.28;2617625;47;19946;-67
2022/08/11 00:27:48;;;;;;;;;;;;;;;19.36;39.62;99321.19;2617979;54;19945;-67
2022/08/11 00:30:18;;;;;;;;;;;;;;;19.49;39.48;99320.91;2617562;47;19939;-66
2022/08/11 00:32:55;;;;;;;;;;;;;;;19.56;39.13;99323.47;2617830;47;19943;-66
2022/08/11 00:35:27;;;;;;;;;;;;;;;19.54;39.38;99330.91;2617963;54;19939;-66
2022/08/11 00:38:17;;;;;;;;;;;;;;;19.44;39.12;99333.41;2618506;54;19970;-66
2022/08/11 00:40:53;;;;;;;;;;;;;;;19.38;39.26;99337.03;2618950;54;19961;-66
2022/08/11 00:43:24;;;;;;;;;;;;;;;19.27;39.74;99333.34;2620093;54;19939;-66
2022/08/11 00:46:06;;;;;;;;;;;;;;;19.21;40.02;99332.41;2620136;39;20366;-66
2022/08/11 00:48:41;;;;;;;;;;;;;;;19.18;39.84;99332.84;2618182;54;20457;-66
2022/08/11 00:51:14;;;;;;;;;;;;;;;19.20;39.92;99321.91;2618428;54;19946;-66
2022/08/11 00:53:48;;;;;;;;;;;;;;;19.17;39.92;99333.09;2618318;54;19953;-65
2022/08/11 00:56:34;;;;;;;;;;;;;;;19.19;39.84;99325.66;2618242;54;19946;-66
2022/08/11 00:59:22;;;;;;;;;;;;;;;19.14;40.03;99329.00;2618502;54;19950;-66
2022/08/11 01:02:17;;;;;;;;;;;;;;;19.02;40.05;99328.22;2618304;54;19947;-66
2022/08/11 01:05:02;;;;;;;;;;;;;;;18.95;40.18;99335.59;2618565;54;19939;-67
2022/08/11 01:07:49;;;;;;;;;;;;;;;18.84;40.56;99339.06;2617906;47;20560;-66
2022/08/11 01:10:46;;;;;;;;;;;;;;;18.71;40.71;99330.22;2618773;54;20430;-66
2022/08/11 01:13:20;;;;;;;;;;;;;;;18.74;40.71;99332.44;2618725;54;19939;-66
2022/08/11 01:16:04;;;;;;;;;;;;;;;18.77;40.79;99337.31;2618918;54;19938;-66
2022/08/11 01:18:49;;;;;;;;;;;;;;;18.80;41.02;99334.19;2618505;54;19939;-67
2022/08/11 01:21:37;;;;;;;;;;;;;;;18.84;40.57;99329.16;2621289;54;19953;-66
2022/08/11 01:24:36;;;;;;;;;;;;;;;18.80;40.80;99336.84;2624923;54;19946;-66
2022/08/11 01:27:16;;;;;;;;;;;;;;;18.83;40.58;99330.22;2622991;54;19939;-67
2022/08/11 01:30:03;;;;;;;;;;;;;;;18.72;40.71;99331.84;2623127;47;20409;-68
2022/08/11 01:32:47;;;;;;;;;;;;;;;18.77;40.66;99334.63;2620378;54;19945;-67
2022/08/11 01:35:30;;;;;;;;;;;;;;;18.81;40.53;99338.47;2621507;54;19947;-65
2022/08/11 01:38:14;;;;;;;;;;;;;;;18.77;40.81;99340.00;2623350;54;19951;-67
2022/08/11 01:41:05;;;;;;;;;;;;;;;18.72;41.00;99339.06;2623743;54;19938;-66
2022/08/11 01:46:45;;;;;;;;;;;;;;;18.72;41.07;99339.88;2622367;47;19947;-66
2022/08/11 01:49:19;;;;;;;;;;;;;;;18.67;40.80;99338.94;2623873;54;19946;-66
2022/08/11 01:52:17;;;;;;;;;;;;;;;18.67;41.32;99346.97;2623356;54;20452;-67
2022/08/11 01:54:51;;;;;;;;;;;;;;;18.57;41.48;99347.50;2623255;54;20022;-67
2022/08/11 01:57:33;;;;;;;;;;;;;;;18.41;41.34;99351.72;2622693;54;19962;-67
2022/08/11 02:00:07;;;;;;;;;;;;;;;18.36;42.15;99340.84;2625077;39;20307;-67
2022/08/11 02:02:52;;;;;;;;;;;;;;;18.37;41.91;99344.34;2623577;54;19942;-66
2022/08/11 02:05:28;;;;;;;;;;;;;;;18.35;42.01;99338.41;2622579;54;19971;-66
2022/08/11 02:08:03;;;;;;;;;;;;;;;18.24;41.60;99343.50;2623209;54;19938;-67
2022/08/11 02:13:33;;;;;;;;;;;;;;;18.05;42.60;99345.44;2624735;54;19947;-67
2022/08/11 02:16:10;;;;;;;;;;;;;;;17.99;42.75;99334.81;2624747;39;20503;-67
2022/08/11 02:24:15;;;;;;;;;;;;;;;17.86;43.22;99337.69;2624003;54;19946;-67
2022/08/11 02:26:48;;;;;;;;;;;;;;;17.78;42.93;99344.16;2622924;54;19938;-67
2022/08/11 02:29:20;;;;;;;;;;;;;;;17.71;43.53;99344.22;2623678;54;19959;-69
2022/08/11 02:34:59;;;;;;;;;;;;;;;17.68;43.52;99347.38;2624186;54;19946;-66
2022/08/11 02:37:36;;;;;;;;;;;;;;;17.63;43.69;99338.38;2624072;54;20443;-67
2022/08/11 02:40:19;;;;;;;;;;;;;;;17.66;44.00;99340.59;2623903;54;19938;-67
2022/08/11 02:42:57;;;;;;;;;;;;;;;17.78;43.82;99338.81;2621029;54;20530;-67
2022/08/11 02:45:32;;;;;;;;;;;;;;;17.68;43.29;99335.84;2621082;54;19954;-67
2022/08/11 02:50:52;;;;;;;;;;;;;;;17.61;43.70;99337.78;2619812;54;19947;-67
2022/08/11 02:53:28;;;;;;;;;;;;;;;17.61;44.23;99346.63;2619433;54;19946;-67
2022/08/11 02:56:04;;;;;;;;;;;;;;;17.68;44.20;99346.56;2618407;54;19947;-67
2022/08/11 02:58:38;;;;;;;;;;;;;;;17.61;44.01;99349.28;2618578;54;19977;-67
2022/08/11 03:01:14;;;;;;;;;;;;;;;17.43;44.40;99347.47;2618434;54;19947;-67
2022/08/11 03:03:50;;;;;;;;;;;;;;;17.39;44.43;99348.94;2618187;39;20342;-67
2022/08/11 03:06:28;;;;;;;;;;;;;;;17.36;44.56;99353.94;2618178;54;19977;-66
2022/08/11 03:09:04;;;;;;;;;;;;;;;17.31;44.97;99362.63;2618392;54;19939;-68
2022/08/11 03:17:21;;;;;;;;;;;;;;;17.42;44.90;99355.69;2618793;39;20311;-67
2022/08/11 03:19:58;;;;;;;;;;;;;;;17.46;44.43;99355.00;2618155;54;19966;-68
2022/08/11 03:22:31;;;;;;;;;;;;;;;17.33;44.64;99358.66;2618332;54;20435;-67
2022/08/11 03:25:04;;;;;;;;;;;;;;;17.21;45.14;99354.28;2617825;47;19992;-67
2022/08/11 03:27:48;;;;;;;;;;;;;;;17.25;44.97;99361.63;2617385;54;20001;-66
2022/08/11 03:30:19;;;;;;;;;;;;;;;17.29;44.94;99360.16;2618348;39;20319;-67
2022/08/11 03:35:40;;;;;;;;;;;;;;;17.15;45.35;99364.00;2618112;54;20450;-67
2022/08/11 03:38:12;;;;;;;;;;;;;;;17.04;45.66;99360.22;2618506;39;20335;-69
2022/08/11 03:44:05;;;;;;;;;;;;;;;16.75;46.24;99361.72;2618544;54;19959;-67
2022/08/11 03:46:44;;;;;;;;;;;;;;;16.70;46.33;99358.84;2617992;54;19947;-67
2022/08/11 03:49:24;;;;;;;;;;;;;;;16.69;46.53;99364.41;2618110;54;19939;-67
2022/08/11 03:51:55;;;;;;;;;;;;;;;16.73;46.64;99360.28;2618369;39;20306;-66
2022/08/11 03:54:30;;;;;;;;;;;;;;;16.63;46.33;99358.09;2617697;54;19981;-66
2022/08/11 03:57:15;;;;;;;;;;;;;;;16.64;46.88;99365.06;2617379;47;19939;-67
2022/08/11 04:03:23;;;;;;;;;;;;;;;16.66;46.87;99362.19;2611550;54;19962;-67
2022/08/11 04:06:26;;;;;;;;;;;;;;;16.60;47.06;99361.19;2621668;39;20338;-67
2022/08/11 04:09:12;;;;;;;;;;;;;;;16.62;46.72;99366.34;2622334;54;19973;-66
2022/08/11 04:12:03;;;;;;;;;;;;;;;16.59;46.99;99362.22;2624128;54;19953;-67
2022/08/11 04:17:51;;;;;;;;;;;;;;;16.48;46.97;99369.06;2619503;54;20426;-66
2022/08/11 04:20:30;;;;;;;;;;;;;;;16.30;47.53;99364.50;2619447;54;19953;-65
2022/08/11 04:23:15;;;;;;;;;;;;;;;16.26;47.62;99365.16;2618878;46;19947;-66
2022/08/11 04:26:24;;;;;;;;;;;;;;;16.34;47.42;99359.56;2618837;54;19987;-66
2022/08/11 04:29:01;;;;;;;;;;;;;;;16.40;47.35;99364.00;2619448;54;20038;-66
2022/08/11 04:31:41;;;;;;;;;;;;;;;16.46;47.43;99370.34;2619635;54;19946;-66
2022/08/11 04:34:37;;;;;;;;;;;;;;;16.46;47.40;99370.34;2618797;47;19950;-66
2022/08/11 04:37:36;;;;;;;;;;;;;;;16.53;47.40;99365.75;2619306;54;19954;-66
2022/08/11 04:40:26;;;;;;;;;;;;;;;16.61;47.20;99360.16;2620023;39;20381;-66
2022/08/11 04:43:20;;;;;;;;;;;;;;;16.67;46.78;99356.63;2619309;54;19946;-66
2022/08/11 04:46:04;;;;;;;;;;;;;;;16.57;46.89;99365.13;2618894;54;19965;-66
2022/08/11 05:03:14;;;;;;;;;;;;;;;16.97;46.85;99374.66;2618740;47;19939;-67
2022/08/11 05:06:18;;;;;;;;;;;;;;;16.99;46.36;99377.94;2618909;47;19950;-66
2022/08/11 05:09:03;;;;;;;;;;;;;;;17.06;46.42;99365.31;2619598;54;19939;-65
2022/08/11 05:11:40;;;;;;;;;;;;;;;17.12;46.22;99368.97;2619265;54;19943;-66
2022/08/11 05:36:56;;;;;;;;;;;;;;;17.31;45.98;99371.44;2623104;54;19946;-66
2022/08/11 05:56:54;;;;;;;;;;;;;;;18.09;44.96;99380.59;2618616;54;19938;-65
2022/08/11 05:59:25;;;;;;;;;;;;;;;18.28;44.95;99375.97;2619592;39;20354;-65
2022/08/11 06:02:02;;;;;;;;;;;;;;;18.46;44.52;99378.59;2619176;54;19947;-65
2022/08/11 06:04:32;;;;;;;;;;;;;;;18.52;43.72;99374.97;2618987;47;19947;-65
2022/08/11 06:07:02;;;;;;;;;;;;;;;18.58;44.22;99383.16;2618989;54;19959;-65
2022/08/11 06:09:34;;;;;;;;;;;;;;;18.69;44.01;99377.78;2618268;54;19943;-65
2022/08/11 06:12:05;;;;;;;;;;;;;;;18.75;43.35;99376.91;2618280;54;19951;-64
2022/08/11 06:14:35;;;;;;;;;;;;;;;18.87;43.41;99379.59;2620833;54;19969;-66
2022/08/11 06:17:07;;;;;;;;;;;;;;;18.93;43.38;99383.22;2621541;54;19947;-66
2022/08/11 06:19:38;;;;;;;;;;;;;;;19.03;43.34;99381.59;2622095;54;19970;-65
2022/08/11 06:22:10;;;;;;;;;;;;;;;19.15;42.94;99383.47;2622106;54;19953;-65
2022/08/11 06:24:41;;;;;;;;;;;;;;;19.27;42.72;99382.38;2620583;54;19953;-66
2022/08/11 06:27:11;;;;;;;;;;;;;;;19.46;42.69;99384.91;2618816;39;20318;-66
2022/08/11 06:29:49;;;;;;;;;;;;;;;19.62;42.33;99375.34;2619796;54;19951;-66
2022/08/11 06:32:29;;;;;;;;;;;;;;;19.69;41.60;99378.72;2619334;54;19947;-66
2022/08/11 06:35:11;;;;;;;;;;;;;;;19.76;42.10;99374.03;2619857;54;19945;-66
2022/08/11 06:37:46;;;;;;;;;;;;;;;19.94;42.03;99371.16;2619761;54;19995;-66
2022/08/11 06:40:27;;;;;;;;;;;;;;;20.07;41.76;99372.72;2620172;54;20455;-66
2022/08/11 06:43:01;;;;;;;;;;;;;;;20.26;41.23;99381.41;2620061;54;19946;-67
2022/08/11 06:45:34;;;;;;;;;;;;;;;20.31;41.36;99378.78;2619626;54;20476;-66
2022/08/11 06:48:09;;;;;;;;;;;;;;;20.42;40.69;99382.47;2619278;54;19938;-66
2022/08/11 06:53:21;;;;;;;;;;;;;;;20.59;40.81;99383.34;2620053;54;19939;-66
2022/08/11 07:01:18;;;;;;;;;;;;;;;20.88;39.97;99378.69;2620356;39;20365;-65
2022/08/11 07:03:57;;;;;;;;;;;;;;;20.98;40.37;99383.38;2619251;46;20091;-66
2022/08/11 07:06:31;;;;;;;;;;;;;;;21.14;40.03;99374.47;2619561;54;19970;-65
2022/08/11 07:28:54;;;;;;;;;;;;;;;21.61;39.02;99357.09;2620410;39;20330;-66
2022/08/11 07:29:28;;;;;;;;;;;;;;;22.30;38.46;99356.50;2619998;54;19939;-66
2022/08/11 07:32:02;;;;;;;;;;;;;;;22.43;37.98;99356.09;2619276;47;20042;-67
2022/08/11 07:34:34;;;;;;;;;;;;;;;22.57;37.97;99357.25;2619919;54;19953;-66
2022/08/11 07:37:12;;;;;;;;;;;;;;;22.69;37.35;99349.00;2619877;54;19947;-68
2022/08/11 07:39:43;;;;;;;;;;;;;;;22.81;37.20;99355.00;2619842;54;19953;-65
2022/08/11 07:42:15;;;;;;;;;;;;;;;22.91;36.49;99354.31;2620019;54;19942;-66
2022/08/11 07:52:59;;;;;;;;;;;;;;;23.40;35.12;99340.56;2619183;47;19943;-65
2022/08/11 07:55:30;;;;;;;;;;;;;;;23.44;35.42;99341.66;2619470;47;19938;-65
2022/08/11 08:17:52;;;;;;;;;;;;;;;24.12;33.76;99342.38;2619513;54;19946;-66
2022/08/11 08:20:39;;;;;;;;;;;;;;;24.32;33.46;99336.19;2620322;54;19939;-66
2022/08/11 08:23:09;;;;;;;;;;;;;;;24.32;33.50;99328.09;2621110;47;20038;-67
2022/08/11 08:25:42;;;;;;;;;;;;;;;24.46;32.70;99334.63;2622631;47;20421;-67
2022/08/11 08:28:13;;;;;;;;;;;;;;;24.46;32.88;99331.09;2622493;54;19939;-66
2022/08/11 08:30:48;;;;;;;;;;;;;;;24.46;32.77;99333.81;2623868;39;20370;-67
2022/08/11 08:33:20;;;;;;;;;;;;;;;24.65;32.61;99339.44;2623356;54;19957;-66
2022/08/11 08:36:09;;;;;;;;;;;;;;;24.69;32.58;99332.41;2623245;54;19938;-66
2022/08/11 08:38:41;;;;;;;;;;;;;;;24.80;32.34;99333.22;2622895;47;20026;-66
2022/08/11 08:41:14;;;;;;;;;;;;;;;25.04;32.23;99344.28;2623075;54;20469;-65
2022/08/11 08:43:47;;;;;;;;;;;;;;;25.05;31.67;99332.34;2622687;54;19938;-67
2022/08/11 08:46:20;;;;;;;;;;;;;;;25.11;31.56;99332.13;2622784;54;19946;-66
2022/08/11 08:48:50;;;;;;;;;;;;;;;25.11;31.87;99326.69;2624078;54;19947;-67
2022/08/11 08:51:38;;;;;;;;;;;;;;;25.28;31.85;99330.97;2624256;54;19953;-67
2022/08/11 08:54:30;;;;;;;;;;;;;;;25.18;31.77;99323.69;2622940;54;19939;-66
2022/08/11 08:57:04;;;;;;;;;;;;;;;25.12;31.71;99327.50;2622196;54;19947;-66
2022/08/11 08:59:35;;;;;;;;;;;;;;;25.36;31.72;99331.22;2623500;54;19943;-66
2022/08/11 09:02:18;;;;;;;;;;;;;;;25.51;31.30;99314.06;2622733;39;20330;-66
2022/08/11 09:05:03;;;;;;;;;;;;;;;25.66;30.62;99322.13;2623251;54;19938;-66
2022/08/11 09:07:33;;;;;;;;;;;;;;;25.81;30.15;99323.16;2622873;54;19946;-66
2022/08/11 09:10:09;;;;;;;;;;;;;;;25.75;30.44;99324.25;2623534;54;19977;-66
2022/08/11 09:12:43;;;;;;;;;;;;;;;25.79;30.67;99319.91;2623014;47;19950;-65
2022/08/11 09:15:13;;;;;;;;;;;;;;;25.96;30.22;99322.25;2623813;54;19958;-65
2022/08/11 09:17:48;;;;;;;;;;;;;;;26.08;29.94;99325.41;2623793;54;20006;-66
2022/08/11 09:20:20;;;;;;;;;;;;;;;26.16;29.69;99320.19;2621484;54;19939;-66
2022/08/11 09:28:39;;;;;;;;;;;;;;;26.37;29.42;99315.47;2619492;54;19953;-66
2022/08/11 09:31:09;;;;;;;;;;;;;;;26.45;28.85;99319.47;2619168;47;19943;-66
2022/08/11 09:33:39;;;;;;;;;;;;;;;26.54;28.89;99320.50;2619960;39;20455;-66
2022/08/11 09:41:37;;;;;;;;;;;;;;;26.75;28.61;99317.59;2619629;54;19954;-65
2022/08/11 09:47:14;;;;;;;;;;;;;;;26.88;28.25;99306.84;2619394;54;19939;-66
2022/08/11 09:49:44;;;;;;;;;;;;;;;26.84;28.45;99296.88;2623381;47;19997;-65
2022/08/11 09:52:15;;;;;;;;;;;;;;;27.02;28.42;99306.97;2624032;54;20026;-65
2022/08/11 09:54:46;;;;;;;;;;;;;;;27.11;28.04;99301.75;2624516;54;19945;-65
2022/08/11 10:00:04;;;;;;;;;;;;;;;27.17;27.74;99298.69;2624880;39;20342;-67
2022/08/11 10:02:43;;;;;;;;;;;;;;;27.15;28.35;99308.22;2623172;54;19946;-68
2022/08/11 10:08:00;;;;;;;;;;;;;;;27.77;26.19;99298.19;2619186;54;19946;-67
2022/08/11 10:10:31;;;;;;;;;;;;;;;27.92;26.05;99297.16;2619420;54;19949;-65
2022/08/11 10:13:04;;;;;;;;;;;;;;;27.98;25.94;99287.84;2619375;47;20452;-66
2022/08/11 10:15:57;;;;;;;;;;;;;;;28.10;25.91;99290.09;2619945;54;19939;-65
2022/08/11 10:18:48;;;;;;;;;;;;;;;28.17;25.46;99286.97;2617531;54;19947;-67
2022/08/11 10:21:27;;;;;;;;;;;;;;;28.17;25.44;99290.53;2617589;54;19938;-67
2022/08/11 10:26:53;;;;;;;;;;;;;;;28.17;25.47;99293.25;2617018;47;19946;-67
2022/08/11 10:35:28;;;;;;;;;;;;;;;28.15;25.76;99271.78;2617472;54;19938;-67
2022/08/11 10:37:58;;;;;;;;;;;;;;;28.31;25.08;99274.25;2617527;54;19938;-68
2022/08/11 10:43:01;;;;;;;;;;;;;;;28.36;25.72;99274.19;2617495;54;19982;-67
2022/08/11 10:43:36;;;;;;;;;;;;;;;28.33;25.61;99277.47;2617944;39;20025;-67
2022/08/11 10:49:10;;;;;;;;;;;;;;;28.33;25.41;99267.44;2617376;54;20443;-67
2022/08/11 10:59:53;;;;;;;;;;;;;;;28.33;25.87;99258.44;2617619;54;19939;-67
2022/08/11 11:02:26;;;;;;;;;;;;;;;28.25;26.39;99259.97;2617748;54;19968;-68
2022/08/11 11:05:08;;;;;;;;;;;;;;;28.25;26.11;99254.53;2617478;54;19939;-67
2022/08/11 11:07:39;;;;;;;;;;;;;;;28.20;26.27;99251.06;2616692;54;19950;-67
2022/08/11 11:10:12;;;;;;;;;;;;;;;28.18;25.81;99248.66;2616962;54;19951;-67
2022/08/11 11:18:10;;;;;;;;;;;;;;;28.28;25.98;99240.31;2618190;54;20430;-67
2022/08/11 11:20:44;;;;;;;;;;;;;;;28.29;25.99;99230.25;2618492;54;19939;-67
2022/08/11 11:23:19;;;;;;;;;;;;;;;28.20;26.02;99232.03;2618426;54;19953;-67
2022/08/11 11:26:08;;;;;;;;;;;;;;;28.33;25.73;99236.69;2618819;54;19950;-67
2022/08/11 11:28:53;;;;;;;;;;;;;;;28.38;25.35;99226.56;2618077;39;20358;-67
2022/08/11 11:31:32;;;;;;;;;;;;;;;28.41;25.23;99213.47;2618248;54;19953;-67
2022/08/11 11:34:08;;;;;;;;;;;;;;;28.47;24.90;99215.81;2618275;54;19945;-67
2022/08/11 11:36:47;;;;;;;;;;;;;;;28.59;24.79;99218.03;2618032;54;19951;-67
2022/08/11 11:39:19;;;;;;;;;;;;;;;28.82;24.61;99221.66;2618419;54;19950;-67
2022/08/11 11:41:49;;;;;;;;;;;;;;;28.88;23.84;99223.97;2618760;54;19947;-67
2022/08/11 11:44:20;;;;;;;;;;;;;;;28.87;23.71;99219.66;2618448;54;19953;-67
2022/08/11 11:46:49;;;;;;;;;;;;;;;28.93;24.15;99204.03;2618168;54;19946;-68
2022/08/11 11:49:19;;;;;;;;;;;;;;;28.98;24.03;99203.94;2617854;54;19950;-68
2022/08/11 11:52:16;;;;;;;;;;;;;;;29.04;23.92;99199.22;2617682;54;20453;-67
2022/08/11 11:54:49;;;;;;;;;;;;;;;29.07;23.85;99180.34;2618218;54;19946;-67
2022/08/11 12:02:45;;;;;;;;;;;;;;;29.20;22.68;99167.03;2618096;54;19950;-66
2022/08/11 12:05:14;;;;;;;;;;;;;;;29.17;23.49;99168.44;2617981;54;19966;-67
2022/08/11 12:10:41;;;;;;;;;;;;;;;29.43;22.53;99165.91;2618992;31;20421;-66
2022/08/11 12:15:53;;;;;;;;;;;;;;;29.46;22.85;99169.94;2618668;54;19973;-67
2022/08/11 12:18:44;;;;;;;;;;;;;;;29.50;22.59;99155.41;2617493;47;19939;-67
2022/08/11 12:21:15;;;;;;;;;;;;;;;29.59;22.57;99163.66;2618168;54;19950;-66
2022/08/11 12:29:44;;;;;;;;;;;;;;;29.77;21.87;99157.25;2617997;54;19962;-67
2022/08/11 12:32:18;;;;;;;;;;;;;;;29.83;22.26;99150.53;2617982;54;20465;-68
2022/08/11 12:34:48;;;;;;;;;;;;;;;30.03;21.57;99149.19;2618072;54;19953;-67
2022/08/11 12:37:22;;;;;;;;;;;;;;;29.91;21.31;99153.63;2617720;54;19939;-67
2022/08/11 12:45:52;;;;;;;;;;;;;;;29.71;21.42;99142.13;2618551;54;20474;-68
2022/08/11 12:54:30;;;;;;;;;;;;;;;29.72;21.55;99137.47;2618153;54;19961;-67
2022/08/11 13:05:31;;;;;;;;;;;;;;;30.25;20.33;99109.38;2618318;54;19938;-68
2022/08/11 13:08:09;;;;;;;;;;;;;;;30.35;20.32;99117.31;2620147;54;20389;-66
2022/08/11 13:13:23;;;;;;;;;;;;;;;30.47;20.04;99116.69;2618070;54;20506;-67
2022/08/11 13:16:13;;;;;;;;;;;;;;;30.52;20.17;99103.72;2617449;47;20029;-66
2022/08/11 13:18:43;;;;;;;;;;;;;;;30.58;20.04;99109.84;2617402;54;19949;-67
2022/08/11 13:21:14;;;;;;;;;;;;;;;30.65;20.01;99101.16;2618083;54;20014;-65
2022/08/11 13:23:50;;;;;;;;;;;;;;;30.68;19.56;99114.19;2617935;54;19939;-66
2022/08/11 13:26:32;;;;;;;;;;;;;;;30.74;19.72;99099.28;2617621;54;20058;-66
2022/08/11 13:29:20;;;;;;;;;;;;;;;30.72;19.57;99094.13;2617356;54;19942;-66
2022/08/11 13:31:50;;;;;;;;;;;;;;;30.81;19.59;99102.34;2617442;50;19961;-67
2022/08/11 13:34:20;;;;;;;;;;;;;;;30.85;19.26;99103.31;2617880;54;19938;-66
2022/08/11 13:36:50;;;;;;;;;;;;;;;30.78;19.01;99092.06;2617440;54;19938;-66
2022/08/11 13:39:21;;;;;;;;;;;;;;;30.68;19.50;99095.88;2617887;54;20002;-66
2022/08/11 13:41:52;;;;;;;;;;;;;;;30.62;19.27;99088.16;2617868;54;19947;-66
2022/08/11 13:44:25;;;;;;;;;;;;;;;30.56;19.50;99092.97;2617918;54;19954;-67
2022/08/11 13:46:57;;;;;;;;;;;;;;;30.55;19.61;99084.00;2616995;54;19954;-65
2022/08/11 13:49:27;;;;;;;;;;;;;;;30.57;19.20;99070.81;2617782;54;20034;-66
2022/08/11 13:51:57;;;;;;;;;;;;;;;30.67;19.39;99066.19;2617091;54;19946;-66
2022/08/11 13:54:29;;;;;;;;;;;;;;;30.69;19.42;99072.94;2617741;54;19946;-67
2022/08/11 13:56:59;;;;;;;;;;;;;;;30.77;19.10;99072.16;2617349;54;19955;-67
2022/08/11 13:59:32;;;;;;;;;;;;;;;30.74;19.38;99067.38;2617094;54;19953;-67
2022/08/11 14:02:15;;;;;;;;;;;;;;;30.71;19.79;99059.78;2617211;47;19942;-66
2022/08/11 14:04:57;;;;;;;;;;;;;;;30.89;19.62;99068.00;2617598;54;20497;-67
2022/08/11 14:07:30;;;;;;;;;;;;;;;30.92;19.08;99065.44;2617450;54;19973;-66
2022/08/11 14:10:01;;;;;;;;;;;;;;;30.90;19.60;99059.47;2617751;54;19946;-65
2022/08/11 14:15:18;;;;;;;;;;;;;;;31.01;19.17;99052.59;2620421;54;19947;-67
2022/08/11 14:17:50;;;;;;;;;;;;;;;31.08;18.38;99054.84;2620233;54;19982;-66
2022/08/11 14:20:22;;;;;;;;;;;;;;;30.88;18.45;99053.56;2619414;39;20362;-67
2022/08/11 14:23:07;;;;;;;;;;;;;;;30.86;18.85;99042.16;2617652;54;19961;-66
2022/08/11 14:26:22;;;;;;;;;;;;;;;30.96;18.83;99038.31;2617671;54;19938;-67
2022/08/11 14:28:30;;;;;;;;;;;;;;;31.11;18.72;99039.72;2617336;54;19947;-67
2022/08/11 14:31:13;;;;;;;;;;;;;;;31.20;18.64;99035.88;2617751;54;19947;-66
2022/08/11 14:33:43;;;;;;;;;;;;;;;31.23;18.48;99054.34;2617681;54;19938;-66
2022/08/11 14:36:32;;;;;;;;;;;;;;;31.10;18.86;99030.75;2617807;39;20361;-66
2022/08/11 14:39:03;;;;;;;;;;;;;;;31.03;18.74;99031.25;2617577;54;19954;-66
2022/08/11 14:47:21;;;;;;;;;;;;;;;31.14;19.01;99022.72;2617402;54;20457;-67
2022/08/11 14:49:54;;;;;;;;;;;;;;;31.35;18.78;99018.19;2618447;39;20362;-66
2022/08/11 14:52:40;;;;;;;;;;;;;;;31.54;18.74;99021.38;2618489;54;19950;-67
2022/08/11 14:58:09;;;;;;;;;;;;;;;31.37;18.50;99018.69;2616644;54;19939;-66
2022/08/11 15:00:40;;;;;;;;;;;;;;;31.41;19.12;99011.44;2618017;54;19974;-67
2022/08/11 15:03:10;;;;;;;;;;;;;;;31.56;18.73;99013.66;2618283;54;20132;-66
2022/08/11 15:05:44;;;;;;;;;;;;;;;31.66;18.73;99007.03;2618235;39;20463;-66
2022/08/11 15:13:55;;;;;;;;;;;;;;;31.67;18.26;98989.50;2618543;54;19970;-69
2022/08/11 15:19:10;;;;;;;;;;;;;;;31.39;18.63;99000.03;2619808;54;19947;-66
2022/08/11 15:24:23;;;;;;;;;;;;;;;31.34;18.68;99000.22;2618513;54;19938;-65
2022/08/11 15:37:56;;;;;;;;;;;;;;;31.06;19.10;98978.72;2617949;54;19953;-67
2022/08/11 15:46:01;;;;;;;;;;;;;;;31.45;18.37;98979.63;2618264;54;19958;-67
2022/08/11 15:48:36;;;;;;;;;;;;;;;31.43;18.09;98981.84;2618049;54;20141;-68
2022/08/11 15:51:10;;;;;;;;;;;;;;;31.32;18.00;98981.44;2618839;54;20437;-69
2022/08/11 15:53:42;;;;;;;;;;;;;;;31.23;18.17;98971.59;2618402;54;19947;-67
2022/08/11 15:56:26;;;;;;;;;;;;;;;31.20;17.91;98969.53;2618044;54;19953;-68
2022/08/11 16:04:45;;;;;;;;;;;;;;;31.18;17.60;98971.78;2617608;47;19953;-68
2022/08/11 16:07:25;;;;;;;;;;;;;;;31.06;17.76;98975.19;2618072;54;19945;-68
2022/08/11 16:09:57;;;;;;;;;;;;;;;31.27;18.04;98978.03;2617564;54;19969;-66
2022/08/11 16:12:30;;;;;;;;;;;;;;;31.36;17.85;98965.19;2617523;54;19950;-69
2022/08/11 16:17:50;;;;;;;;;;;;;;;31.41;18.31;98961.47;2617708;54;19947;-65
2022/08/11 16:20:22;;;;;;;;;;;;;;;31.44;18.06;98969.81;2618977;54;19939;-67
2022/08/11 16:22:55;;;;;;;;;;;;;;;31.53;17.98;98967.84;2623154;54;19958;-65
2022/08/11 16:25:31;;;;;;;;;;;;;;;31.64;17.89;98965.56;2624581;54;20381;-66
2022/08/11 16:28:23;;;;;;;;;;;;;;;31.67;17.42;98956.69;2624858;54;20492;-65
2022/08/11 16:30:53;;;;;;;;;;;;;;;31.68;17.73;98952.03;2625179;54;19938;-67
2022/08/11 16:33:24;;;;;;;;;;;;;;;31.57;17.79;98949.69;2623851;39;20344;-68
2022/08/11 16:39:18;;;;;;;;;;;;;;;31.67;17.33;98947.72;2623759;54;19946;-66
2022/08/11 16:47:15;;;;;;;;;;;;;;;31.74;17.50;98956.19;2626757;46;19964;-67
2022/08/11 16:49:46;;;;;;;;;;;;;;;31.86;17.55;98939.13;2626269;54;20026;-68
2022/08/11 16:52:21;;;;;;;;;;;;;;;32.00;17.61;98937.75;2626116;54;19945;-66
2022/08/11 16:54:54;;;;;;;;;;;;;;;31.89;17.07;98939.28;2622277;54;19939;-69
2022/08/11 17:00:11;;;;;;;;;;;;;;;31.71;17.29;98933.06;2621036;47;19942;-67
2022/08/11 17:14:06;;;;;;;;;;;;;;;31.73;17.24;98933.53;2621151;54;20465;-66
2022/08/11 17:16:37;;;;;;;;;;;;;;;32.03;16.99;98926.16;2621158;54;19939;-67
2022/08/11 17:19:10;;;;;;;;;;;;;;;32.19;16.76;98920.91;2621315;54;19946;-68
2022/08/11 17:23:45;;;;;;;;;;;;;;;32.20;16.47;98932.63;2621600;39;20353;-65
2022/08/11 17:24:31;;;;;;;;;;;;;;;32.22;16.81;98931.19;2621492;54;19939;-67
2022/08/11 17:27:06;;;;;;;;;;;;;;;32.09;16.76;98925.94;2620793;54;19939;-65
2022/08/11 17:29:39;;;;;;;;;;;;;;;31.81;16.97;98926.44;2619895;39;20354;-66
2022/08/11 17:35:31;;;;;;;;;;;;;;;31.45;16.97;98926.91;2620077;54;19950;-66
2022/08/11 17:38:03;;;;;;;;;;;;;;;31.27;17.38;98935.16;2620776;39;20351;-64
2022/08/11 17:40:35;;;;;;;;;;;;;;;31.27;17.10;98934.31;2619755;54;20430;-67
2022/08/11 17:48:36;;;;;;;;;;;;;;;31.42;17.27;98925.63;2620395;46;19938;-66
2022/08/11 17:59:50;;;;;;;;;;;;;;;31.29;17.07;98930.19;2621169;54;20447;-67
2022/08/11 17:59:55;;;;;;;;;;;;;;;30.50;18.13;98930.59;2622291;54;20177;-67
2022/08/11 18:05:25;;;;;;;;;;;;;;;29.91;19.11;98932.88;2619264;54;19970;-66
